sensor_id;sensor_type;location;lat;lon;timestamp;temperature;humidity
76293;DHT22;67256;51.154;4.164;2023-04-23T00:00:16;12.70;73.90
76293;DHT22;67256;51.154;4.164;2023-04-23T00:02:45;12.80;73.70
76293;DHT22;67256;51.154;4.164;2023-04-23T00:05:14;12.80;73.50
76293;DHT22;67256;51.154;4.164;2023-04-23T00:07:41;12.80;73.60
76293;DHT22;67256;51.154;4.164;2023-04-23T00:10:07;12.80;73.40
76293;DHT22;67256;51.154;4.164;2023-04-23T00:12:34;12.80;73.20
76293;DHT22;67256;51.154;4.164;2023-04-23T00:15:01;12.80;73.10
76293;DHT22;67256;51.154;4.164;2023-04-23T00:17:27;12.80;73.00
76293;DHT22;67256;51.154;4.164;2023-04-23T00:19:53;12.70;73.20
76293;DHT22;67256;51.154;4.164;2023-04-23T00:22:19;12.70;73.00
76293;DHT22;67256;51.154;4.164;2023-04-23T00:24:45;12.70;73.00
76293;DHT22;67256;51.154;4.164;2023-04-23T00:27:11;12.70;72.80
76293;DHT22;67256;51.154;4.164;2023-04-23T00:29:37;12.70;73.10
76293;DHT22;67256;51.154;4.164;2023-04-23T00:32:03;12.60;73.10
76293;DHT22;67256;51.154;4.164;2023-04-23T00:34:28;12.60;73.10
76293;DHT22;67256;51.154;4.164;2023-04-23T00:36:54;12.60;73.00
76293;DHT22;67256;51.154;4.164;2023-04-23T00:39:20;12.60;72.90
76293;DHT22;67256;51.154;4.164;2023-04-23T00:41:46;12.60;73.00
76293;DHT22;67256;51.154;4.164;2023-04-23T00:44:12;12.60;73.00
76293;DHT22;67256;51.154;4.164;2023-04-23T00:46:38;12.60;72.90
76293;DHT22;67256;51.154;4.164;2023-04-23T00:49:04;12.50;72.90
76293;DHT22;67256;51.154;4.164;2023-04-23T00:51:30;12.50;72.70
76293;DHT22;67256;51.154;4.164;2023-04-23T00:53:58;12.50;72.70
76293;DHT22;67256;51.154;4.164;2023-04-23T00:56:24;12.50;72.70
76293;DHT22;67256;51.154;4.164;2023-04-23T00:58:52;12.50;72.60
76293;DHT22;67256;51.154;4.164;2023-04-23T01:01:19;12.50;72.50
76293;DHT22;67256;51.154;4.164;2023-04-23T01:03:48;12.50;72.50
76293;DHT22;67256;51.154;4.164;2023-04-23T01:06:15;12.50;72.20
76293;DHT22;67256;51.154;4.164;2023-04-23T01:08:42;12.50;72.50
76293;DHT22;67256;51.154;4.164;2023-04-23T01:11:08;12.50;73.10
76293;DHT22;67256;51.154;4.164;2023-04-23T01:13:34;12.50;72.50
76293;DHT22;67256;51.154;4.164;2023-04-23T01:16:00;12.50;72.60
76293;DHT22;67256;51.154;4.164;2023-04-23T01:18:26;12.50;72.60
76293;DHT22;67256;51.154;4.164;2023-04-23T01:20:52;12.50;72.60
76293;DHT22;67256;51.154;4.164;2023-04-23T01:23:19;12.50;72.60
76293;DHT22;67256;51.154;4.164;2023-04-23T01:25:45;12.50;72.50
76293;DHT22;67256;51.154;4.164;2023-04-23T01:28:11;12.50;72.50
76293;DHT22;67256;51.154;4.164;2023-04-23T01:30:40;12.50;72.60
76293;DHT22;67256;51.154;4.164;2023-04-23T01:33:07;12.50;72.50
76293;DHT22;67256;51.154;4.164;2023-04-23T01:35:34;12.50;72.60
76293;DHT22;67256;51.154;4.164;2023-04-23T01:38:02;12.50;72.70
76293;DHT22;67256;51.154;4.164;2023-04-23T01:40:29;12.50;72.80
76293;DHT22;67256;51.154;4.164;2023-04-23T01:42:55;12.50;72.70
76293;DHT22;67256;51.154;4.164;2023-04-23T01:45:21;12.50;72.80
76293;DHT22;67256;51.154;4.164;2023-04-23T01:47:47;12.50;73.00
76293;DHT22;67256;51.154;4.164;2023-04-23T01:50:13;12.50;73.10
76293;DHT22;67256;51.154;4.164;2023-04-23T01:52:39;12.50;73.20
76293;DHT22;67256;51.154;4.164;2023-04-23T01:55:05;12.50;73.30
76293;DHT22;67256;51.154;4.164;2023-04-23T01:57:31;12.50;73.50
76293;DHT22;67256;51.154;4.164;2023-04-23T02:00:04;12.60;73.50
76293;DHT22;67256;51.154;4.164;2023-04-23T02:02:36;12.60;73.60
76293;DHT22;67256;51.154;4.164;2023-04-23T02:05:02;12.60;73.50
76293;DHT22;67256;51.154;4.164;2023-04-23T02:07:32;12.60;73.20
76293;DHT22;67256;51.154;4.164;2023-04-23T02:09:58;12.60;73.50
76293;DHT22;67256;51.154;4.164;2023-04-23T02:12:25;12.60;73.50
76293;DHT22;67256;51.154;4.164;2023-04-23T02:14:52;12.60;73.50
76293;DHT22;67256;51.154;4.164;2023-04-23T02:17:19;12.60;73.50
76293;DHT22;67256;51.154;4.164;2023-04-23T02:19:46;12.60;73.50
76293;DHT22;67256;51.154;4.164;2023-04-23T02:22:12;12.60;73.40
76293;DHT22;67256;51.154;4.164;2023-04-23T02:24:38;12.60;73.50
76293;DHT22;67256;51.154;4.164;2023-04-23T02:27:04;12.50;73.40
76293;DHT22;67256;51.154;4.164;2023-04-23T02:29:29;12.50;73.30
76293;DHT22;67256;51.154;4.164;2023-04-23T02:31:55;12.50;73.40
76293;DHT22;67256;51.154;4.164;2023-04-23T02:34:21;12.50;73.40
76293;DHT22;67256;51.154;4.164;2023-04-23T02:36:47;12.50;73.40
76293;DHT22;67256;51.154;4.164;2023-04-23T02:39:12;12.50;73.30
76293;DHT22;67256;51.154;4.164;2023-04-23T02:41:38;12.40;73.30
76293;DHT22;67256;51.154;4.164;2023-04-23T02:44:03;12.40;73.10
76293;DHT22;67256;51.154;4.164;2023-04-23T02:46:29;12.40;73.30
76293;DHT22;67256;51.154;4.164;2023-04-23T02:48:56;12.40;73.20
76293;DHT22;67256;51.154;4.164;2023-04-23T02:51:21;12.40;73.20
76293;DHT22;67256;51.154;4.164;2023-04-23T02:53:47;12.40;73.30
76293;DHT22;67256;51.154;4.164;2023-04-23T02:56:13;12.40;73.20
76293;DHT22;67256;51.154;4.164;2023-04-23T02:58:39;12.40;73.30
76293;DHT22;67256;51.154;4.164;2023-04-23T03:01:06;12.40;73.40
76293;DHT22;67256;51.154;4.164;2023-04-23T03:03:32;12.40;73.50
76293;DHT22;67256;51.154;4.164;2023-04-23T03:05:59;12.30;73.50
76293;DHT22;67256;51.154;4.164;2023-04-23T03:08:25;12.30;73.50
76293;DHT22;67256;51.154;4.164;2023-04-23T03:10:51;12.30;73.80
76293;DHT22;67256;51.154;4.164;2023-04-23T03:13:17;12.30;73.90
76293;DHT22;67256;51.154;4.164;2023-04-23T03:15:42;12.30;73.90
76293;DHT22;67256;51.154;4.164;2023-04-23T03:18:08;12.30;73.80
76293;DHT22;67256;51.154;4.164;2023-04-23T03:20:37;12.30;74.30
76293;DHT22;67256;51.154;4.164;2023-04-23T03:23:02;12.30;74.30
76293;DHT22;67256;51.154;4.164;2023-04-23T03:25:31;12.30;74.00
76293;DHT22;67256;51.154;4.164;2023-04-23T03:27:57;12.30;74.20
76293;DHT22;67256;51.154;4.164;2023-04-23T03:30:23;12.30;74.10
76293;DHT22;67256;51.154;4.164;2023-04-23T03:32:49;12.30;74.10
76293;DHT22;67256;51.154;4.164;2023-04-23T03:35:15;12.30;73.90
76293;DHT22;67256;51.154;4.164;2023-04-23T03:37:41;12.30;74.00
76293;DHT22;67256;51.154;4.164;2023-04-23T03:40:08;12.20;74.10
76293;DHT22;67256;51.154;4.164;2023-04-23T03:42:34;12.20;74.20
76293;DHT22;67256;51.154;4.164;2023-04-23T03:45:00;12.20;74.30
76293;DHT22;67256;51.154;4.164;2023-04-23T03:47:26;12.30;74.40
76293;DHT22;67256;51.154;4.164;2023-04-23T03:49:53;12.20;74.40
76293;DHT22;67256;51.154;4.164;2023-04-23T03:52:19;12.20;74.50
76293;DHT22;67256;51.154;4.164;2023-04-23T03:54:44;12.20;74.40
76293;DHT22;67256;51.154;4.164;2023-04-23T03:57:10;12.20;74.20
76293;DHT22;67256;51.154;4.164;2023-04-23T03:59:38;12.20;74.30
76293;DHT22;67256;51.154;4.164;2023-04-23T04:02:04;12.20;74.30
76293;DHT22;67256;51.154;4.164;2023-04-23T04:04:31;12.20;74.30
76293;DHT22;67256;51.154;4.164;2023-04-23T04:06:57;12.20;74.40
76293;DHT22;67256;51.154;4.164;2023-04-23T04:09:25;12.10;74.30
76293;DHT22;67256;51.154;4.164;2023-04-23T04:11:52;12.20;74.30
76293;DHT22;67256;51.154;4.164;2023-04-23T04:14:18;12.20;74.20
76293;DHT22;67256;51.154;4.164;2023-04-23T04:16:44;12.10;74.20
76293;DHT22;67256;51.154;4.164;2023-04-23T04:19:11;12.10;74.40
76293;DHT22;67256;51.154;4.164;2023-04-23T04:21:36;12.20;74.30
76293;DHT22;67256;51.154;4.164;2023-04-23T04:24:03;12.10;74.40
76293;DHT22;67256;51.154;4.164;2023-04-23T04:26:30;12.10;74.40
76293;DHT22;67256;51.154;4.164;2023-04-23T04:28:59;12.10;74.20
76293;DHT22;67256;51.154;4.164;2023-04-23T04:31:26;12.10;74.10
76293;DHT22;67256;51.154;4.164;2023-04-23T04:33:54;12.10;74.60
76293;DHT22;67256;51.154;4.164;2023-04-23T04:36:20;12.10;74.20
76293;DHT22;67256;51.154;4.164;2023-04-23T04:38:46;12.10;74.00
76293;DHT22;67256;51.154;4.164;2023-04-23T04:41:12;12.10;74.30
76293;DHT22;67256;51.154;4.164;2023-04-23T04:43:39;12.10;74.30
76293;DHT22;67256;51.154;4.164;2023-04-23T04:46:05;12.10;74.40
76293;DHT22;67256;51.154;4.164;2023-04-23T04:48:30;12.10;74.20
76293;DHT22;67256;51.154;4.164;2023-04-23T04:50:56;12.10;74.10
76293;DHT22;67256;51.154;4.164;2023-04-23T04:53:22;12.10;74.10
76293;DHT22;67256;51.154;4.164;2023-04-23T04:55:47;12.10;74.20
76293;DHT22;67256;51.154;4.164;2023-04-23T04:58:14;12.10;74.30
76293;DHT22;67256;51.154;4.164;2023-04-23T05:00:40;12.20;74.40
76293;DHT22;67256;51.154;4.164;2023-04-23T05:03:05;12.20;74.30
76293;DHT22;67256;51.154;4.164;2023-04-23T05:05:32;12.20;74.20
76293;DHT22;67256;51.154;4.164;2023-04-23T05:07:58;12.20;73.90
76293;DHT22;67256;51.154;4.164;2023-04-23T05:10:26;12.20;74.20
76293;DHT22;67256;51.154;4.164;2023-04-23T05:12:52;12.30;74.10
76293;DHT22;67256;51.154;4.164;2023-04-23T05:15:18;12.30;73.90
76293;DHT22;67256;51.154;4.164;2023-04-23T05:17:44;12.30;73.90
76293;DHT22;67256;51.154;4.164;2023-04-23T05:20:10;12.40;73.70
76293;DHT22;67256;51.154;4.164;2023-04-23T05:22:40;12.40;73.60
76293;DHT22;67256;51.154;4.164;2023-04-23T05:25:07;12.50;73.60
76293;DHT22;67256;51.154;4.164;2023-04-23T05:27:33;12.50;73.50
76293;DHT22;67256;51.154;4.164;2023-04-23T05:30:03;12.50;73.50
76293;DHT22;67256;51.154;4.164;2023-04-23T05:32:30;12.60;74.00
76293;DHT22;67256;51.154;4.164;2023-04-23T05:34:56;12.60;73.30
76293;DHT22;67256;51.154;4.164;2023-04-23T05:37:22;12.60;73.40
76293;DHT22;67256;51.154;4.164;2023-04-23T05:39:48;12.70;73.40
76293;DHT22;67256;51.154;4.164;2023-04-23T05:42:14;12.70;73.40
76293;DHT22;67256;51.154;4.164;2023-04-23T05:44:40;12.80;73.20
76293;DHT22;67256;51.154;4.164;2023-04-23T05:47:06;12.80;73.20
76293;DHT22;67256;51.154;4.164;2023-04-23T05:49:33;12.90;73.20
76293;DHT22;67256;51.154;4.164;2023-04-23T05:51:59;12.80;73.60
76293;DHT22;67256;51.154;4.164;2023-04-23T05:54:27;12.80;73.70
76293;DHT22;67256;51.154;4.164;2023-04-23T05:56:53;12.90;73.60
76293;DHT22;67256;51.154;4.164;2023-04-23T05:59:18;13.00;73.40
76293;DHT22;67256;51.154;4.164;2023-04-23T06:01:44;13.10;73.40
76293;DHT22;67256;51.154;4.164;2023-04-23T06:04:10;13.10;73.30
76293;DHT22;67256;51.154;4.164;2023-04-23T06:06:36;13.10;72.90
76293;DHT22;67256;51.154;4.164;2023-04-23T06:09:02;13.20;72.90
76293;DHT22;67256;51.154;4.164;2023-04-23T06:11:28;13.20;72.70
76293;DHT22;67256;51.154;4.164;2023-04-23T06:13:56;13.10;73.10
76293;DHT22;67256;51.154;4.164;2023-04-23T06:16:23;13.10;73.10
76293;DHT22;67256;51.154;4.164;2023-04-23T06:18:49;13.20;73.10
76293;DHT22;67256;51.154;4.164;2023-04-23T06:21:15;13.10;73.60
76293;DHT22;67256;51.154;4.164;2023-04-23T06:23:41;13.20;73.60
76293;DHT22;67256;51.154;4.164;2023-04-23T06:26:07;13.20;73.40
76293;DHT22;67256;51.154;4.164;2023-04-23T06:28:32;13.20;73.40
76293;DHT22;67256;51.154;4.164;2023-04-23T06:30:58;13.30;73.40
76293;DHT22;67256;51.154;4.164;2023-04-23T06:33:24;13.30;73.20
76293;DHT22;67256;51.154;4.164;2023-04-23T06:35:49;13.40;73.20
76293;DHT22;67256;51.154;4.164;2023-04-23T06:38:16;13.40;73.20
76293;DHT22;67256;51.154;4.164;2023-04-23T06:40:44;13.40;73.60
76293;DHT22;67256;51.154;4.164;2023-04-23T06:43:10;13.40;73.70
76293;DHT22;67256;51.154;4.164;2023-04-23T06:45:35;13.40;74.00
76293;DHT22;67256;51.154;4.164;2023-04-23T06:48:01;13.40;74.20
76293;DHT22;67256;51.154;4.164;2023-04-23T06:50:27;13.40;73.50
76293;DHT22;67256;51.154;4.164;2023-04-23T06:52:53;13.30;74.30
76293;DHT22;67256;51.154;4.164;2023-04-23T06:55:20;13.40;74.30
76293;DHT22;67256;51.154;4.164;2023-04-23T06:57:51;13.40;73.60
76293;DHT22;67256;51.154;4.164;2023-04-23T07:00:18;13.50;73.90
76293;DHT22;67256;51.154;4.164;2023-04-23T07:02:44;13.40;74.30
76293;DHT22;67256;51.154;4.164;2023-04-23T07:05:11;13.40;74.50
76293;DHT22;67256;51.154;4.164;2023-04-23T07:07:37;13.40;74.50
76293;DHT22;67256;51.154;4.164;2023-04-23T07:10:03;13.50;74.30
76293;DHT22;67256;51.154;4.164;2023-04-23T07:12:29;13.50;74.40
76293;DHT22;67256;51.154;4.164;2023-04-23T07:14:55;13.50;74.20
76293;DHT22;67256;51.154;4.164;2023-04-23T07:17:21;13.50;74.10
76293;DHT22;67256;51.154;4.164;2023-04-23T07:19:47;13.50;74.00
76293;DHT22;67256;51.154;4.164;2023-04-23T07:22:13;13.50;74.60
76293;DHT22;67256;51.154;4.164;2023-04-23T07:24:38;13.50;74.70
76293;DHT22;67256;51.154;4.164;2023-04-23T07:27:06;13.50;75.10
76293;DHT22;67256;51.154;4.164;2023-04-23T07:29:31;13.50;74.90
76293;DHT22;67256;51.154;4.164;2023-04-23T07:31:57;13.50;74.80
76293;DHT22;67256;51.154;4.164;2023-04-23T07:34:23;13.50;74.80
76293;DHT22;67256;51.154;4.164;2023-04-23T07:36:49;13.60;74.60
76293;DHT22;67256;51.154;4.164;2023-04-23T07:39:14;13.60;74.70
76293;DHT22;67256;51.154;4.164;2023-04-23T07:41:40;13.60;74.60
76293;DHT22;67256;51.154;4.164;2023-04-23T07:44:06;13.50;74.50
76293;DHT22;67256;51.154;4.164;2023-04-23T07:46:32;13.50;75.10
76293;DHT22;67256;51.154;4.164;2023-04-23T07:48:57;13.60;74.50
76293;DHT22;67256;51.154;4.164;2023-04-23T07:51:23;13.60;74.90
76293;DHT22;67256;51.154;4.164;2023-04-23T07:53:52;13.60;75.00
76293;DHT22;67256;51.154;4.164;2023-04-23T07:56:19;13.70;74.50
76293;DHT22;67256;51.154;4.164;2023-04-23T07:58:46;13.80;74.20
76293;DHT22;67256;51.154;4.164;2023-04-23T08:01:12;13.80;74.20
76293;DHT22;67256;51.154;4.164;2023-04-23T08:03:38;13.90;74.30
76293;DHT22;67256;51.154;4.164;2023-04-23T08:06:04;13.80;74.60
76293;DHT22;67256;51.154;4.164;2023-04-23T08:08:29;13.90;73.70
76293;DHT22;67256;51.154;4.164;2023-04-23T08:10:55;13.80;74.80
76293;DHT22;67256;51.154;4.164;2023-04-23T08:13:21;13.80;74.30
76293;DHT22;67256;51.154;4.164;2023-04-23T08:15:47;13.90;74.10
76293;DHT22;67256;51.154;4.164;2023-04-23T08:18:14;14.00;73.90
76293;DHT22;67256;51.154;4.164;2023-04-23T08:20:39;14.10;73.80
76293;DHT22;67256;51.154;4.164;2023-04-23T08:23:06;14.10;73.50
76293;DHT22;67256;51.154;4.164;2023-04-23T08:25:31;14.10;73.40
76293;DHT22;67256;51.154;4.164;2023-04-23T08:27:57;14.10;73.40
76293;DHT22;67256;51.154;4.164;2023-04-23T08:30:23;14.10;73.90
76293;DHT22;67256;51.154;4.164;2023-04-23T08:32:50;14.20;73.70
76293;DHT22;67256;51.154;4.164;2023-04-23T08:35:18;14.30;73.20
76293;DHT22;67256;51.154;4.164;2023-04-23T08:37:44;14.40;72.60
76293;DHT22;67256;51.154;4.164;2023-04-23T08:40:10;14.50;73.10
76293;DHT22;67256;51.154;4.164;2023-04-23T08:42:48;14.50;72.60
76293;DHT22;67256;51.154;4.164;2023-04-23T08:45:14;14.50;72.60
76293;DHT22;67256;51.154;4.164;2023-04-23T08:47:40;14.50;72.30
76293;DHT22;67256;51.154;4.164;2023-04-23T08:50:11;14.60;71.90
76293;DHT22;67256;51.154;4.164;2023-04-23T08:52:40;14.60;72.10
76293;DHT22;67256;51.154;4.164;2023-04-23T08:55:08;14.60;72.10
76293;DHT22;67256;51.154;4.164;2023-04-23T08:57:39;14.70;71.50
76293;DHT22;67256;51.154;4.164;2023-04-23T09:00:10;14.90;71.00
76293;DHT22;67256;51.154;4.164;2023-04-23T09:02:37;14.80;71.10
76293;DHT22;67256;51.154;4.164;2023-04-23T09:05:04;15.00;70.40
76293;DHT22;67256;51.154;4.164;2023-04-23T09:07:30;15.10;70.30
76293;DHT22;67256;51.154;4.164;2023-04-23T09:09:56;15.20;69.90
76293;DHT22;67256;51.154;4.164;2023-04-23T09:12:22;15.30;69.80
76293;DHT22;67256;51.154;4.164;2023-04-23T09:14:48;15.30;68.90
76293;DHT22;67256;51.154;4.164;2023-04-23T09:17:16;15.10;69.20
76293;DHT22;67256;51.154;4.164;2023-04-23T09:19:42;15.30;69.30
76293;DHT22;67256;51.154;4.164;2023-04-23T09:22:09;15.30;69.00
76293;DHT22;67256;51.154;4.164;2023-04-23T09:24:35;15.40;68.90
76293;DHT22;67256;51.154;4.164;2023-04-23T09:27:00;15.50;68.10
76293;DHT22;67256;51.154;4.164;2023-04-23T09:29:27;15.50;67.10
76293;DHT22;67256;51.154;4.164;2023-04-23T09:32:05;15.50;67.50
76293;DHT22;67256;51.154;4.164;2023-04-23T09:34:34;15.50;66.90
76293;DHT22;67256;51.154;4.164;2023-04-23T09:37:01;15.70;66.90
76293;DHT22;67256;51.154;4.164;2023-04-23T09:39:28;16.10;66.40
76293;DHT22;67256;51.154;4.164;2023-04-23T09:42:02;16.10;66.20
76293;DHT22;67256;51.154;4.164;2023-04-23T09:44:31;16.20;66.10
76293;DHT22;67256;51.154;4.164;2023-04-23T09:47:05;16.20;65.00
76293;DHT22;67256;51.154;4.164;2023-04-23T09:49:47;16.20;65.30
76293;DHT22;67256;51.154;4.164;2023-04-23T09:52:13;16.20;65.00
76293;DHT22;67256;51.154;4.164;2023-04-23T09:54:38;16.10;65.20
76293;DHT22;67256;51.154;4.164;2023-04-23T09:57:05;16.20;64.90
76293;DHT22;67256;51.154;4.164;2023-04-23T09:59:34;16.30;65.10
76293;DHT22;67256;51.154;4.164;2023-04-23T10:02:03;16.20;64.70
76293;DHT22;67256;51.154;4.164;2023-04-23T10:04:29;16.10;64.80
76293;DHT22;67256;51.154;4.164;2023-04-23T10:07:03;16.10;64.80
76293;DHT22;67256;51.154;4.164;2023-04-23T10:09:29;16.10;64.80
76293;DHT22;67256;51.154;4.164;2023-04-23T10:12:00;16.20;65.10
76293;DHT22;67256;51.154;4.164;2023-04-23T10:14:29;16.10;64.70
76293;DHT22;67256;51.154;4.164;2023-04-23T10:16:58;16.20;65.20
76293;DHT22;67256;51.154;4.164;2023-04-23T10:19:25;16.10;65.00
76293;DHT22;67256;51.154;4.164;2023-04-23T10:21:56;16.30;64.80
76293;DHT22;67256;51.154;4.164;2023-04-23T10:24:23;16.40;64.50
76293;DHT22;67256;51.154;4.164;2023-04-23T10:26:51;16.60;64.10
76293;DHT22;67256;51.154;4.164;2023-04-23T10:29:22;16.60;63.70
76293;DHT22;67256;51.154;4.164;2023-04-23T10:31:52;16.70;64.00
76293;DHT22;67256;51.154;4.164;2023-04-23T10:34:19;16.80;63.50
76293;DHT22;67256;51.154;4.164;2023-04-23T10:36:45;16.80;63.90
76293;DHT22;67256;51.154;4.164;2023-04-23T10:39:12;16.90;63.60
76293;DHT22;67256;51.154;4.164;2023-04-23T10:41:40;16.80;63.50
76293;DHT22;67256;51.154;4.164;2023-04-23T10:44:08;16.70;63.90
76293;DHT22;67256;51.154;4.164;2023-04-23T10:46:35;16.80;63.70
76293;DHT22;67256;51.154;4.164;2023-04-23T10:49:10;16.80;63.30
76293;DHT22;67256;51.154;4.164;2023-04-23T10:51:39;16.60;64.00
76293;DHT22;67256;51.154;4.164;2023-04-23T10:54:07;16.30;65.60
76293;DHT22;67256;51.154;4.164;2023-04-23T10:56:37;16.10;67.60
76293;DHT22;67256;51.154;4.164;2023-04-23T10:59:26;16.10;67.90
76293;DHT22;67256;51.154;4.164;2023-04-23T11:01:52;15.90;68.50
76293;DHT22;67256;51.154;4.164;2023-04-23T11:04:30;16.00;68.40
76293;DHT22;67256;51.154;4.164;2023-04-23T11:07:17;16.10;67.70
76293;DHT22;67256;51.154;4.164;2023-04-23T11:09:45;16.30;67.20
76293;DHT22;67256;51.154;4.164;2023-04-23T11:14:53;16.30;67.30
76293;DHT22;67256;51.154;4.164;2023-04-23T11:17:58;16.10;67.70
76293;DHT22;67256;51.154;4.164;2023-04-23T11:20:17;16.10;67.70
76293;DHT22;67256;51.154;4.164;2023-04-23T11:22:47;16.00;67.50
76293;DHT22;67256;51.154;4.164;2023-04-23T11:25:18;16.10;67.50
76293;DHT22;67256;51.154;4.164;2023-04-23T11:27:47;16.10;66.90
76293;DHT22;67256;51.154;4.164;2023-04-23T11:30:14;16.20;66.80
76293;DHT22;67256;51.154;4.164;2023-04-23T11:32:42;16.40;66.10
76293;DHT22;67256;51.154;4.164;2023-04-23T11:35:12;16.50;64.50
76293;DHT22;67256;51.154;4.164;2023-04-23T11:37:39;16.60;63.40
76293;DHT22;67256;51.154;4.164;2023-04-23T11:40:14;16.60;62.20
76293;DHT22;67256;51.154;4.164;2023-04-23T11:42:47;16.60;62.00
76293;DHT22;67256;51.154;4.164;2023-04-23T11:45:25;16.50;60.90
76293;DHT22;67256;51.154;4.164;2023-04-23T11:47:53;16.50;61.30
76293;DHT22;67256;51.154;4.164;2023-04-23T11:50:24;16.50;62.10
76293;DHT22;67256;51.154;4.164;2023-04-23T11:52:50;16.60;62.30
76293;DHT22;67256;51.154;4.164;2023-04-23T11:55:17;16.40;62.80
76293;DHT22;67256;51.154;4.164;2023-04-23T11:57:45;16.40;63.50
76293;DHT22;67256;51.154;4.164;2023-04-23T12:00:21;16.50;63.50
76293;DHT22;67256;51.154;4.164;2023-04-23T12:03:00;16.60;63.90
76293;DHT22;67256;51.154;4.164;2023-04-23T12:05:39;16.70;64.00
76293;DHT22;67256;51.154;4.164;2023-04-23T12:08:16;16.90;64.20
76293;DHT22;67256;51.154;4.164;2023-04-23T12:10:59;16.90;63.40
76293;DHT22;67256;51.154;4.164;2023-04-23T12:13:27;17.10;63.80
76293;DHT22;67256;51.154;4.164;2023-04-23T12:16:03;17.10;63.80
76293;DHT22;67256;51.154;4.164;2023-04-23T12:18:34;17.20;63.80
76293;DHT22;67256;51.154;4.164;2023-04-23T12:23:31;17.10;63.70
76293;DHT22;67256;51.154;4.164;2023-04-23T12:26:01;17.20;63.30
76293;DHT22;67256;51.154;4.164;2023-04-23T12:28:28;17.10;63.40
76293;DHT22;67256;51.154;4.164;2023-04-23T12:30:59;17.10;63.30
76293;DHT22;67256;51.154;4.164;2023-04-23T12:33:28;17.10;63.80
76293;DHT22;67256;51.154;4.164;2023-04-23T12:35:55;17.10;64.30
76293;DHT22;67256;51.154;4.164;2023-04-23T12:38:24;17.00;64.90
76293;DHT22;67256;51.154;4.164;2023-04-23T12:40:55;17.00;65.10
76293;DHT22;67256;51.154;4.164;2023-04-23T12:43:22;17.00;65.60
76293;DHT22;67256;51.154;4.164;2023-04-23T12:45:49;17.00;65.20
76293;DHT22;67256;51.154;4.164;2023-04-23T12:48:16;16.90;65.20
76293;DHT22;67256;51.154;4.164;2023-04-23T12:50:44;16.80;65.50
76293;DHT22;67256;51.154;4.164;2023-04-23T12:53:10;16.80;66.30
76293;DHT22;67256;51.154;4.164;2023-04-23T12:55:36;16.70;66.40
76293;DHT22;67256;51.154;4.164;2023-04-23T12:58:04;16.70;66.50
76293;DHT22;67256;51.154;4.164;2023-04-23T13:00:31;16.60;67.20
76293;DHT22;67256;51.154;4.164;2023-04-23T13:02:57;16.60;67.10
76293;DHT22;67256;51.154;4.164;2023-04-23T13:05:23;16.40;67.30
76293;DHT22;67256;51.154;4.164;2023-04-23T13:07:48;16.40;67.90
76293;DHT22;67256;51.154;4.164;2023-04-23T13:10:14;16.40;68.10
76293;DHT22;67256;51.154;4.164;2023-04-23T13:12:41;16.40;68.20
76293;DHT22;67256;51.154;4.164;2023-04-23T13:15:07;16.30;68.40
76293;DHT22;67256;51.154;4.164;2023-04-23T13:17:35;16.30;68.40
76293;DHT22;67256;51.154;4.164;2023-04-23T13:20:00;16.10;69.20
76293;DHT22;67256;51.154;4.164;2023-04-23T13:22:26;16.10;68.70
76293;DHT22;67256;51.154;4.164;2023-04-23T13:24:55;16.10;69.20
76293;DHT22;67256;51.154;4.164;2023-04-23T13:27:23;16.30;69.10
76293;DHT22;67256;51.154;4.164;2023-04-23T13:29:49;16.30;70.10
76293;DHT22;67256;51.154;4.164;2023-04-23T13:32:15;16.30;70.70
76293;DHT22;67256;51.154;4.164;2023-04-23T13:34:41;16.30;70.40
76293;DHT22;67256;51.154;4.164;2023-04-23T13:37:07;16.30;70.70
76293;DHT22;67256;51.154;4.164;2023-04-23T13:39:35;16.40;71.30
76293;DHT22;67256;51.154;4.164;2023-04-23T13:42:00;16.50;71.00
76293;DHT22;67256;51.154;4.164;2023-04-23T13:44:29;16.60;70.20
76293;DHT22;67256;51.154;4.164;2023-04-23T13:46:55;16.60;70.20
76293;DHT22;67256;51.154;4.164;2023-04-23T13:49:25;16.50;69.00
76293;DHT22;67256;51.154;4.164;2023-04-23T13:51:52;16.20;71.00
76293;DHT22;67256;51.154;4.164;2023-04-23T13:54:23;16.20;71.00
76293;DHT22;67256;51.154;4.164;2023-04-23T13:56:55;16.20;71.30
76293;DHT22;67256;51.154;4.164;2023-04-23T13:59:20;16.40;70.80
76293;DHT22;67256;51.154;4.164;2023-04-23T14:01:47;16.60;71.00
76293;DHT22;67256;51.154;4.164;2023-04-23T14:04:16;16.60;70.40
76293;DHT22;67256;51.154;4.164;2023-04-23T14:06:41;16.50;71.10
76293;DHT22;67256;51.154;4.164;2023-04-23T14:09:07;16.60;70.60
76293;DHT22;67256;51.154;4.164;2023-04-23T14:11:33;16.50;70.80
76293;DHT22;67256;51.154;4.164;2023-04-23T14:13:59;16.50;70.20
76293;DHT22;67256;51.154;4.164;2023-04-23T14:16:25;16.50;69.60
76293;DHT22;67256;51.154;4.164;2023-04-23T14:18:52;16.60;69.30
76293;DHT22;67256;51.154;4.164;2023-04-23T14:21:18;16.20;69.20
76293;DHT22;67256;51.154;4.164;2023-04-23T14:26:33;16.10;69.70
76293;DHT22;67256;51.154;4.164;2023-04-23T14:29:08;15.90;69.60
76293;DHT22;67256;51.154;4.164;2023-04-23T14:31:36;15.90;69.10
76293;DHT22;67256;51.154;4.164;2023-04-23T14:34:03;16.00;69.00
76293;DHT22;67256;51.154;4.164;2023-04-23T14:36:29;16.00;68.90
76293;DHT22;67256;51.154;4.164;2023-04-23T14:38:55;16.10;68.50
76293;DHT22;67256;51.154;4.164;2023-04-23T14:41:22;16.00;68.90
76293;DHT22;67256;51.154;4.164;2023-04-23T14:43:48;16.00;68.70
76293;DHT22;67256;51.154;4.164;2023-04-23T14:46:14;16.00;68.80
76293;DHT22;67256;51.154;4.164;2023-04-23T14:48:40;15.90;68.60
76293;DHT22;67256;51.154;4.164;2023-04-23T14:51:05;16.00;69.10
76293;DHT22;67256;51.154;4.164;2023-04-23T14:53:31;16.10;69.10
76293;DHT22;67256;51.154;4.164;2023-04-23T14:55:57;16.10;69.00
76293;DHT22;67256;51.154;4.164;2023-04-23T14:58:22;16.20;69.10
76293;DHT22;67256;51.154;4.164;2023-04-23T15:00:49;16.30;68.80
76293;DHT22;67256;51.154;4.164;2023-04-23T15:03:15;16.30;69.10
76293;DHT22;67256;51.154;4.164;2023-04-23T15:05:41;16.30;68.90
76293;DHT22;67256;51.154;4.164;2023-04-23T15:08:07;16.30;68.90
76293;DHT22;67256;51.154;4.164;2023-04-23T15:10:32;16.50;68.90
76293;DHT22;67256;51.154;4.164;2023-04-23T15:15:42;16.50;68.20
76293;DHT22;67256;51.154;4.164;2023-04-23T15:18:15;16.50;68.20
76293;DHT22;67256;51.154;4.164;2023-04-23T15:20:42;16.50;68.60
76293;DHT22;67256;51.154;4.164;2023-04-23T15:23:08;16.40;68.80
76293;DHT22;67256;51.154;4.164;2023-04-23T15:25:34;16.40;68.90
76293;DHT22;67256;51.154;4.164;2023-04-23T15:28:01;16.40;68.90
76293;DHT22;67256;51.154;4.164;2023-04-23T15:30:27;16.40;68.90
76293;DHT22;67256;51.154;4.164;2023-04-23T15:32:53;16.40;69.30
76293;DHT22;67256;51.154;4.164;2023-04-23T15:35:25;16.50;69.40
76293;DHT22;67256;51.154;4.164;2023-04-23T15:37:53;16.50;69.10
76293;DHT22;67256;51.154;4.164;2023-04-23T15:40:19;16.60;69.10